createdAt,value
2023-05-04T00:00:19.719Z,0.00
2023-05-04T00:01:19.581Z,0.00
2023-05-04T00:03:23.785Z,0.00
2023-05-04T00:04:23.480Z,0.00
2023-05-04T00:06:27.331Z,0.00
2023-05-04T00:07:27.290Z,0.00
2023-05-04T00:09:31.202Z,0.00
2023-05-04T00:10:31.137Z,0.00
2023-05-04T00:12:35.064Z,0.00
2023-05-04T00:13:35.021Z,0.00
2023-05-04T00:15:38.922Z,0.00
2023-05-04T00:16:38.931Z,0.00
2023-05-04T00:18:42.831Z,0.00
2023-05-04T00:19:42.794Z,0.00
2023-05-04T00:21:35.635Z,0.00
2023-05-04T00:22:35.589Z,0.00
2023-05-04T00:24:39.489Z,0.00
2023-05-04T00:25:39.434Z,0.00
2023-05-04T00:27:43.350Z,0.00
2023-05-04T00:28:43.298Z,0.00
2023-05-04T00:30:47.784Z,0.00
2023-05-04T00:31:47.617Z,0.00
2023-05-04T00:33:51.261Z,0.00
2023-05-04T00:34:51.207Z,0.00
2023-05-04T00:36:55.101Z,0.00
2023-05-04T00:37:55.062Z,0.00
2023-05-04T00:39:58.974Z,0.00
2023-05-04T00:40:58.933Z,0.00
2023-05-04T00:43:02.821Z,0.00
2023-05-04T00:44:02.782Z,0.00
2023-05-04T00:46:06.698Z,0.00
2023-05-04T00:47:06.690Z,0.00
2023-05-04T00:48:06.657Z,0.00
2023-05-04T00:49:06.559Z,0.00
2023-05-04T00:50:06.799Z,0.00
2023-05-04T00:51:06.484Z,0.00
2023-05-04T00:52:06.457Z,0.00
2023-05-04T00:53:06.425Z,0.00
2023-05-04T00:54:06.394Z,0.00
2023-05-04T00:55:06.406Z,0.00
2023-05-04T00:56:06.320Z,0.00
2023-05-04T00:57:06.280Z,0.00
2023-05-04T00:58:06.246Z,0.00
2023-05-04T00:59:06.209Z,0.00
2023-05-04T01:00:06.405Z,0.00
2023-05-04T01:01:06.191Z,0.00
2023-05-04T01:02:06.112Z,0.00
2023-05-04T01:03:06.199Z,0.00
2023-05-04T01:04:06.166Z,0.00
2023-05-04T01:05:05.996Z,0.00
2023-05-04T01:06:05.972Z,0.00
2023-05-04T01:07:05.922Z,0.00
2023-05-04T01:08:05.891Z,0.00
2023-05-04T01:09:05.850Z,0.00
2023-05-04T01:10:06.049Z,0.00
2023-05-04T01:11:05.790Z,0.00
2023-05-04T01:12:05.751Z,0.00
2023-05-04T01:13:05.751Z,0.00
2023-05-04T01:14:05.701Z,0.00
2023-05-04T01:15:05.641Z,0.00
2023-05-04T01:16:05.608Z,0.00
2023-05-04T01:17:05.732Z,0.00
2023-05-04T01:18:05.618Z,0.00
2023-05-04T01:19:05.509Z,0.00
2023-05-04T01:20:05.904Z,0.00
2023-05-04T01:21:05.430Z,0.00
2023-05-04T01:22:05.398Z,0.00
2023-05-04T01:23:05.381Z,0.00
2023-05-04T01:24:05.332Z,0.00
2023-05-04T01:25:05.295Z,0.00
2023-05-04T01:26:05.256Z,0.00
2023-05-04T01:27:05.220Z,0.00
2023-05-04T01:28:05.183Z,0.00
2023-05-04T01:29:05.167Z,0.00
2023-05-04T01:30:05.329Z,0.00
2023-05-04T01:31:05.118Z,0.00
2023-05-04T01:32:05.044Z,0.00
2023-05-04T01:33:05.064Z,0.00
2023-05-04T01:34:04.971Z,0.00
2023-05-04T01:35:04.937Z,0.00
2023-05-04T01:36:04.896Z,0.00
2023-05-04T01:37:04.869Z,0.00
2023-05-04T01:38:04.827Z,0.00
2023-05-04T01:39:04.791Z,0.00
2023-05-04T01:40:04.952Z,0.00
2023-05-04T01:41:04.728Z,0.00
2023-05-04T01:42:04.679Z,0.00
2023-05-04T01:43:04.647Z,0.00
2023-05-04T01:44:04.616Z,0.00
2023-05-04T01:45:04.572Z,0.00
2023-05-04T01:46:04.575Z,0.00
2023-05-04T01:47:04.511Z,0.00
2023-05-04T01:48:04.502Z,0.00
2023-05-04T01:49:04.430Z,0.00
2023-05-04T01:50:04.582Z,0.00
2023-05-04T01:51:04.358Z,0.00
2023-05-04T01:52:04.320Z,0.00
2023-05-04T01:53:04.287Z,0.00
2023-05-04T01:54:04.251Z,0.00
2023-05-04T01:55:04.218Z,0.00
2023-05-04T01:56:04.186Z,0.00
2023-05-04T01:57:04.160Z,0.00
2023-05-04T01:58:04.129Z,0.00
2023-05-04T01:59:04.074Z,0.00
2023-05-04T02:00:04.294Z,0.00
2023-05-04T02:01:04.007Z,0.00
2023-05-04T02:02:04.152Z,0.00
2023-05-04T02:03:03.990Z,0.00
2023-05-04T02:04:04.041Z,0.00
2023-05-04T02:05:03.864Z,0.00
2023-05-04T02:06:03.869Z,0.00
2023-05-04T02:07:03.787Z,0.00
2023-05-04T02:08:03.753Z,0.00
2023-05-04T02:09:03.726Z,0.00
2023-05-04T02:10:03.922Z,0.00
2023-05-04T02:11:03.645Z,0.00
2023-05-04T02:12:03.622Z,0.00
2023-05-04T02:13:03.619Z,0.00
2023-05-04T02:14:03.548Z,0.00
2023-05-04T02:15:03.500Z,0.00
2023-05-04T02:16:03.519Z,0.00
2023-05-04T02:17:03.434Z,0.00
2023-05-04T02:18:03.416Z,0.00
2023-05-04T02:19:03.361Z,0.00
2023-05-04T02:20:03.441Z,0.00
2023-05-04T02:21:03.284Z,0.00
2023-05-04T02:22:03.251Z,0.00
2023-05-04T02:23:03.227Z,0.00
2023-05-04T02:24:03.191Z,0.00
2023-05-04T02:25:03.151Z,0.00
2023-05-04T02:26:03.133Z,0.00
2023-05-04T02:27:03.079Z,0.00
2023-05-04T02:28:03.057Z,0.00
2023-05-04T02:29:03.005Z,0.00
2023-05-04T02:30:03.248Z,0.00
2023-05-04T02:31:02.931Z,0.00
2023-05-04T02:32:02.942Z,0.00
2023-05-04T02:33:02.905Z,0.00
2023-05-04T02:34:02.854Z,0.00
2023-05-04T02:35:02.809Z,0.00
2023-05-04T02:36:02.751Z,0.00
2023-05-04T02:37:03.301Z,0.00
2023-05-04T02:38:02.675Z,0.00
2023-05-04T02:39:02.644Z,0.00
2023-05-04T02:40:02.906Z,0.00
2023-05-04T02:41:02.578Z,0.00
2023-05-04T02:42:02.533Z,0.00
2023-05-04T02:43:02.503Z,0.00
2023-05-04T02:44:02.465Z,0.00
2023-05-04T02:45:02.449Z,0.00
2023-05-04T02:46:02.449Z,0.00
2023-05-04T02:47:02.348Z,0.00
2023-05-04T02:48:02.427Z,0.00
2023-05-04T02:49:02.283Z,0.00
2023-05-04T02:50:02.416Z,0.00
2023-05-04T02:51:02.211Z,0.00
2023-05-04T02:52:02.174Z,0.00
2023-05-04T02:53:02.135Z,0.00
2023-05-04T02:54:02.105Z,0.00
2023-05-04T02:55:02.064Z,0.00
2023-05-04T02:56:02.028Z,0.00
2023-05-04T02:57:01.995Z,0.00
2023-05-04T02:58:01.970Z,0.00
2023-05-04T02:59:01.919Z,0.00
2023-05-04T03:00:02.148Z,0.00
2023-05-04T03:01:01.894Z,0.00
2023-05-04T03:02:01.816Z,0.00
2023-05-04T03:03:01.836Z,0.00
2023-05-04T03:04:01.794Z,0.00
2023-05-04T03:05:01.706Z,0.00
2023-05-04T03:06:01.676Z,0.00
2023-05-04T03:07:01.642Z,0.00
2023-05-04T03:08:01.612Z,0.00
2023-05-04T03:09:01.562Z,0.00
2023-05-04T03:10:01.627Z,0.00
2023-05-04T03:11:01.497Z,0.00
2023-05-04T03:12:01.453Z,0.00
2023-05-04T03:13:01.433Z,0.00
2023-05-04T03:14:01.373Z,0.00
2023-05-04T03:15:01.340Z,0.00
2023-05-04T03:16:01.337Z,0.00
2023-05-04T03:17:01.285Z,0.00
2023-05-04T03:18:01.267Z,0.00
2023-05-04T03:19:01.195Z,0.00
2023-05-04T03:20:01.166Z,0.00
2023-05-04T03:21:01.164Z,0.00
2023-05-04T03:22:01.098Z,0.00
2023-05-04T03:23:01.068Z,0.00
2023-05-04T03:24:01.034Z,0.00
2023-05-04T03:25:00.984Z,0.00
2023-05-04T03:26:00.955Z,0.00
2023-05-04T03:27:00.917Z,0.00
2023-05-04T03:28:00.882Z,0.00
2023-05-04T03:29:00.866Z,0.00
2023-05-04T03:30:00.817Z,0.00
2023-05-04T03:31:00.766Z,0.00
2023-05-04T03:32:00.787Z,0.00
2023-05-04T03:33:00.729Z,0.00
2023-05-04T03:34:00.658Z,0.00
2023-05-04T03:35:02.579Z,0.00
2023-05-04T03:36:00.603Z,0.00
2023-05-04T03:37:00.556Z,0.00
2023-05-04T03:38:00.528Z,0.00
2023-05-04T03:39:00.482Z,0.00
2023-05-04T03:40:00.445Z,0.00
2023-05-04T03:41:00.400Z,0.00
2023-05-04T03:42:00.393Z,0.00
2023-05-04T03:43:00.332Z,0.00
2023-05-04T03:44:00.300Z,0.00
2023-05-04T03:45:01.821Z,0.00
2023-05-04T03:46:00.259Z,0.00
2023-05-04T03:47:00.210Z,0.00
2023-05-04T03:48:00.245Z,0.00
2023-05-04T03:49:00.158Z,0.00
2023-05-04T03:50:00.119Z,0.00
2023-05-04T03:51:00.045Z,0.00
2023-05-04T03:52:00.027Z,0.00
2023-05-04T03:52:59.976Z,0.00
2023-05-04T03:53:59.940Z,0.00
2023-05-04T03:54:59.900Z,0.00
2023-05-04T03:55:59.868Z,0.00
2023-05-04T03:56:59.844Z,0.00
2023-05-04T03:57:59.856Z,0.00
2023-05-04T03:58:59.761Z,0.00
2023-05-04T03:59:59.731Z,0.00
2023-05-04T04:00:59.690Z,0.00
2023-05-04T04:01:59.710Z,0.00
2023-05-04T04:02:59.710Z,0.00
2023-05-04T04:03:59.672Z,0.00
2023-05-04T04:04:59.549Z,0.00
2023-05-04T04:05:59.512Z,0.00
2023-05-04T04:06:59.472Z,0.00
2023-05-04T04:07:59.439Z,0.00
2023-05-04T04:08:59.407Z,0.00
2023-05-04T04:09:59.366Z,0.00
2023-05-04T04:10:59.356Z,0.00
2023-05-04T04:11:59.297Z,0.00
2023-05-04T04:12:59.292Z,0.00
2023-05-04T04:13:59.230Z,0.00
2023-05-04T04:14:59.199Z,0.00
2023-05-04T04:15:59.182Z,0.00
2023-05-04T04:16:59.118Z,0.00
2023-05-04T04:17:59.166Z,0.00
2023-05-04T04:18:59.045Z,0.00
2023-05-04T04:19:59.006Z,0.00
2023-05-04T04:20:58.988Z,0.00
2023-05-04T04:21:58.938Z,0.00
2023-05-04T04:22:58.913Z,0.00
2023-05-04T04:23:58.862Z,0.00
2023-05-04T04:24:58.831Z,0.00
2023-05-04T04:25:58.797Z,0.00
2023-05-04T04:26:58.775Z,0.00
2023-05-04T04:27:58.735Z,5.63
2023-05-04T04:28:58.687Z,5.63
2023-05-04T04:29:58.653Z,5.63
2023-05-04T04:30:58.645Z,5.63
2023-05-04T04:31:58.626Z,5.63
2023-05-04T04:32:58.583Z,5.63
2023-05-04T04:33:58.536Z,5.63
2023-05-04T04:34:58.478Z,5.63
2023-05-04T04:35:58.450Z,5.63
2023-05-04T04:36:58.404Z,5.63
2023-05-04T04:37:58.372Z,5.63
2023-05-04T04:38:58.345Z,5.63
2023-05-04T04:39:58.309Z,5.63
2023-05-04T04:40:58.288Z,5.63
2023-05-04T04:41:58.220Z,11.25
2023-05-04T04:42:58.194Z,11.25
2023-05-04T04:43:58.155Z,11.25
2023-05-04T04:44:58.117Z,11.25
2023-05-04T04:45:58.092Z,11.25
2023-05-04T04:46:58.088Z,11.25
2023-05-04T04:47:58.063Z,11.25
2023-05-04T04:48:57.978Z,11.25
2023-05-04T04:49:57.952Z,11.25
2023-05-04T04:50:57.907Z,11.25
2023-05-04T04:51:57.869Z,11.25
2023-05-04T04:52:57.833Z,11.25
2023-05-04T04:53:57.795Z,11.25
2023-05-04T04:54:57.771Z,16.88
2023-05-04T04:55:57.727Z,16.88
2023-05-04T04:56:57.693Z,16.88
2023-05-04T04:57:57.661Z,16.88
2023-05-04T04:58:57.620Z,16.88
2023-05-04T04:59:57.584Z,16.88
2023-05-04T05:00:57.574Z,16.88
2023-05-04T05:01:57.514Z,16.88
2023-05-04T05:02:57.540Z,16.88
2023-05-04T05:03:57.440Z,16.88
2023-05-04T05:04:57.459Z,16.88
2023-05-04T05:05:57.370Z,22.50
2023-05-04T05:06:57.341Z,22.50
2023-05-04T05:07:57.298Z,22.50
2023-05-04T05:08:57.265Z,22.50
2023-05-04T05:09:57.240Z,22.50
2023-05-04T05:10:57.198Z,22.50
2023-05-04T05:11:57.162Z,22.50
2023-05-04T05:12:57.161Z,22.50
2023-05-04T05:13:57.093Z,22.50
2023-05-04T05:14:57.054Z,22.50
2023-05-04T05:15:57.019Z,22.50
2023-05-04T05:16:57.003Z,22.50
2023-05-04T05:17:57.192Z,22.50
2023-05-04T05:18:56.912Z,22.50
2023-05-04T05:19:56.875Z,22.50
2023-05-04T05:20:56.839Z,22.50
2023-05-04T05:21:56.810Z,28.13
2023-05-04T05:22:56.769Z,28.13
2023-05-04T05:23:56.741Z,28.13
2023-05-04T05:24:56.717Z,28.13
2023-05-04T05:25:56.713Z,28.13
2023-05-04T05:26:56.642Z,28.13
2023-05-04T05:27:56.595Z,28.13
2023-05-04T05:28:56.554Z,28.13
2023-05-04T05:29:56.536Z,28.13
2023-05-04T05:30:56.523Z,28.13
2023-05-04T05:31:56.453Z,28.13
2023-05-04T05:32:56.446Z,28.13
2023-05-04T05:33:56.391Z,28.13
2023-05-04T05:34:56.354Z,22.50
2023-05-04T05:35:56.319Z,22.50
2023-05-04T05:36:56.283Z,22.50
2023-05-04T05:37:56.251Z,22.50
2023-05-04T05:38:56.218Z,22.50
2023-05-04T05:39:56.193Z,22.50
2023-05-04T05:40:56.152Z,22.50
2023-05-04T05:41:56.106Z,22.50
2023-05-04T05:42:56.070Z,22.50
2023-05-04T05:43:56.032Z,22.50
2023-05-04T05:44:55.998Z,22.50
2023-05-04T05:45:55.979Z,28.13
2023-05-04T05:46:55.935Z,28.13
2023-05-04T05:47:55.957Z,28.13
2023-05-04T05:48:55.856Z,28.13
2023-05-04T05:49:55.841Z,28.13
2023-05-04T05:50:55.789Z,28.13
2023-05-04T05:51:55.754Z,28.13
2023-05-04T05:52:55.717Z,28.13
2023-05-04T05:53:55.696Z,28.13
2023-05-04T05:54:55.650Z,28.13
2023-05-04T05:55:55.620Z,33.75
2023-05-04T05:56:55.582Z,33.75
2023-05-04T05:57:55.547Z,33.75
2023-05-04T05:58:55.506Z,33.75
2023-05-04T05:59:55.483Z,33.75
2023-05-04T06:00:55.443Z,33.75
2023-05-04T06:01:55.411Z,33.75
2023-05-04T06:02:55.439Z,33.75
2023-05-04T06:03:55.624Z,33.75
2023-05-04T06:04:55.396Z,33.75
2023-05-04T06:05:55.267Z,33.75
2023-05-04T06:06:55.247Z,39.38
2023-05-04T06:07:55.200Z,39.38
2023-05-04T06:08:55.163Z,39.38
2023-05-04T06:09:55.129Z,39.38
2023-05-04T06:10:55.090Z,39.38
2023-05-04T06:11:55.656Z,39.38
2023-05-04T06:12:55.068Z,39.38
2023-05-04T06:13:54.995Z,39.38
2023-05-04T06:14:54.962Z,33.75
2023-05-04T06:15:54.991Z,33.75
2023-05-04T06:16:54.889Z,33.75
2023-05-04T06:17:54.873Z,33.75
2023-05-04T06:18:54.813Z,33.75
2023-05-04T06:19:54.786Z,33.75
2023-05-04T06:20:54.746Z,39.38
2023-05-04T06:21:54.751Z,39.38
2023-05-04T06:22:54.686Z,39.38
2023-05-04T06:23:54.640Z,39.38
2023-05-04T06:24:58.939Z,39.38
2023-05-04T06:25:54.576Z,39.38
2023-05-04T06:26:54.551Z,39.38
2023-05-04T06:27:54.507Z,39.38
2023-05-04T06:28:54.480Z,39.38
2023-05-04T06:29:54.448Z,39.38
2023-05-04T06:30:54.433Z,39.38
2023-05-04T06:31:54.412Z,39.38
2023-05-04T06:32:54.546Z,39.38
2023-05-04T06:33:54.303Z,39.38
2023-05-04T06:34:54.268Z,39.38
2023-05-04T06:35:54.240Z,39.38
2023-05-04T06:36:54.192Z,39.38
2023-05-04T06:37:54.190Z,39.38
2023-05-04T06:38:54.130Z,39.38
2023-05-04T06:39:54.726Z,39.38
2023-05-04T06:40:54.060Z,39.38
2023-05-04T06:41:54.028Z,39.38
2023-05-04T06:42:53.996Z,39.38
2023-05-04T06:43:53.959Z,39.38
2023-05-04T06:44:53.932Z,39.38
2023-05-04T06:45:53.901Z,39.38
2023-05-04T06:46:53.867Z,39.38
2023-05-04T06:47:53.902Z,39.38
2023-05-04T06:48:53.792Z,39.38
2023-05-04T06:49:53.755Z,39.38
2023-05-04T06:50:53.725Z,39.38
2023-05-04T06:51:53.688Z,39.38
2023-05-04T06:52:53.650Z,39.38
2023-05-04T06:53:53.632Z,39.38
2023-05-04T06:54:53.588Z,39.38
2023-05-04T06:55:53.563Z,39.38
2023-05-04T06:56:53.526Z,39.38
2023-05-04T06:57:53.486Z,39.38
2023-05-04T06:58:53.444Z,39.38
2023-05-04T06:59:53.423Z,39.38
2023-05-04T07:00:53.395Z,39.38
2023-05-04T07:01:53.345Z,39.38
2023-05-04T07:02:53.347Z,39.38
2023-05-04T07:03:53.292Z,39.38
2023-05-04T07:04:53.263Z,39.38
2023-05-04T07:05:53.208Z,39.38
2023-05-04T07:06:53.177Z,39.38
2023-05-04T07:07:53.145Z,45.00
2023-05-04T07:08:53.110Z,45.00
2023-05-04T07:09:53.117Z,45.00
2023-05-04T07:10:53.045Z,39.38
2023-05-04T07:11:53.011Z,39.38
2023-05-04T07:12:53.017Z,39.38
2023-05-04T07:13:52.943Z,39.38
2023-05-04T07:14:52.908Z,39.38
2023-05-04T07:15:52.931Z,39.38
2023-05-04T07:16:52.846Z,45.00
2023-05-04T07:17:52.861Z,45.00
2023-05-04T07:18:52.773Z,45.00
2023-05-04T07:19:52.742Z,45.00
2023-05-04T07:20:54.235Z,45.00
2023-05-04T07:21:52.673Z,45.00
2023-05-04T07:22:52.649Z,45.00
2023-05-04T07:23:52.612Z,45.00
2023-05-04T07:24:52.595Z,45.00
2023-05-04T07:25:53.767Z,45.00
2023-05-04T07:26:52.500Z,45.00
2023-05-04T07:27:52.468Z,45.00
2023-05-04T07:28:52.439Z,45.00
2023-05-04T07:29:52.403Z,45.00
2023-05-04T07:30:52.368Z,45.00
2023-05-04T07:31:52.361Z,45.00
2023-05-04T07:32:52.397Z,45.00
2023-05-04T07:33:52.269Z,39.38
2023-05-04T07:34:52.236Z,39.38
2023-05-04T07:35:52.207Z,39.38
2023-05-04T07:36:52.172Z,39.38
2023-05-04T07:37:52.133Z,39.38
2023-05-04T07:38:52.110Z,39.38
2023-05-04T07:39:52.079Z,39.38
2023-05-04T07:40:52.042Z,39.38
2023-05-04T07:41:52.047Z,39.38
2023-05-04T07:42:51.970Z,39.38
2023-05-04T07:43:51.944Z,39.38
2023-05-04T07:44:51.901Z,39.38
2023-05-04T07:45:51.898Z,45.00
2023-05-04T07:46:51.828Z,45.00
2023-05-04T07:47:52.867Z,45.00
2023-05-04T07:48:51.778Z,45.00
2023-05-04T07:49:51.752Z,45.00
2023-05-04T07:50:51.718Z,45.00
2023-05-04T07:51:51.672Z,45.00
2023-05-04T07:52:51.643Z,45.00
2023-05-04T07:53:51.607Z,45.00
2023-05-04T07:54:51.564Z,45.00
2023-05-04T07:55:51.539Z,45.00
2023-05-04T07:56:51.506Z,45.00
2023-05-04T07:57:51.557Z,45.00
2023-05-04T07:58:51.451Z,45.00
2023-05-04T07:59:51.405Z,45.00
2023-05-04T08:00:51.369Z,45.00
2023-05-04T08:01:51.350Z,45.00
2023-05-04T08:02:51.434Z,45.00
2023-05-04T08:03:51.279Z,45.00
2023-05-04T08:04:51.245Z,45.00
2023-05-04T08:05:51.213Z,45.00
2023-05-04T08:06:51.183Z,45.00
2023-05-04T08:07:51.154Z,45.00
2023-05-04T08:08:52.706Z,45.00
2023-05-04T08:09:51.079Z,45.00
2023-05-04T08:10:51.045Z,45.00
2023-05-04T08:11:51.022Z,45.00
2023-05-04T08:12:51.025Z,50.63
2023-05-04T08:13:50.947Z,50.63
2023-05-04T08:14:50.919Z,45.00
2023-05-04T08:15:51.193Z,45.00
2023-05-04T08:16:50.856Z,45.00
2023-05-04T08:17:50.841Z,45.00
2023-05-04T08:18:50.799Z,45.00
2023-05-04T08:19:50.751Z,45.00
2023-05-04T08:20:50.722Z,45.00
2023-05-04T08:21:50.689Z,45.00
2023-05-04T08:22:50.665Z,45.00
2023-05-04T08:23:50.626Z,45.00
2023-05-04T08:24:50.592Z,45.00
2023-05-04T08:25:50.563Z,45.00
2023-05-04T08:27:03.552Z,45.00
2023-05-04T08:27:50.493Z,45.00
2023-05-04T08:28:50.465Z,50.63
2023-05-04T08:29:50.432Z,45.00
2023-05-04T08:30:50.402Z,45.00
2023-05-04T08:31:50.394Z,50.63
2023-05-04T08:32:50.391Z,50.63
2023-05-04T08:33:50.303Z,50.63
2023-05-04T08:34:50.272Z,50.63
2023-05-04T08:35:50.234Z,50.63
2023-05-04T08:36:50.205Z,50.63
2023-05-04T08:37:50.179Z,50.63
2023-05-04T08:38:50.142Z,50.63
2023-05-04T08:39:50.110Z,50.63
2023-05-04T08:40:50.641Z,50.63
2023-05-04T08:41:50.048Z,50.63
2023-05-04T08:42:50.013Z,50.63
2023-05-04T08:43:49.987Z,50.63
2023-05-04T08:44:49.954Z,50.63
2023-05-04T08:45:50.069Z,50.63
2023-05-04T08:46:49.903Z,50.63
2023-05-04T08:47:49.862Z,50.63
2023-05-04T08:48:49.823Z,56.25
2023-05-04T08:49:49.812Z,56.25
2023-05-04T08:50:49.767Z,56.25
2023-05-04T08:51:49.723Z,56.25
2023-05-04T08:52:49.702Z,56.25
2023-05-04T08:53:49.679Z,56.25
2023-05-04T08:54:49.638Z,56.25
2023-05-04T08:55:49.619Z,56.25
2023-05-04T08:56:49.582Z,56.25
2023-05-04T08:57:51.106Z,56.25
2023-05-04T08:58:49.510Z,56.25
2023-05-04T08:59:49.477Z,56.25
2023-05-04T09:00:49.497Z,56.25
2023-05-04T09:01:49.508Z,61.88
2023-05-04T09:02:49.413Z,56.25
2023-05-04T09:03:49.506Z,56.25
2023-05-04T09:04:49.318Z,56.25
2023-05-04T09:05:49.278Z,56.25
2023-05-04T09:06:49.258Z,56.25
2023-05-04T09:07:49.224Z,61.88
2023-05-04T09:08:49.196Z,61.88
2023-05-04T09:09:49.160Z,61.88
2023-05-04T09:10:49.132Z,61.88
2023-05-04T09:11:49.141Z,61.88
2023-05-04T09:12:49.108Z,61.88
2023-05-04T09:13:49.039Z,61.88
2023-05-04T09:14:49.010Z,61.88
2023-05-04T09:15:48.977Z,56.25
2023-05-04T09:16:48.972Z,61.88
2023-05-04T09:17:57.754Z,61.88
2023-05-04T09:18:48.878Z,61.88
2023-05-04T09:19:48.850Z,61.88
2023-05-04T09:20:48.825Z,61.88
2023-05-04T09:21:48.787Z,56.25
2023-05-04T09:22:48.755Z,56.25
2023-05-04T09:23:48.796Z,56.25
2023-05-04T09:24:48.697Z,56.25
2023-05-04T09:25:48.674Z,56.25
2023-05-04T09:26:48.633Z,56.25
2023-05-04T09:27:48.601Z,56.25
2023-05-04T09:28:48.572Z,56.25
2023-05-04T09:29:48.541Z,56.25
2023-05-04T09:30:48.554Z,56.25
2023-05-04T09:31:48.480Z,56.25
2023-05-04T09:32:48.520Z,56.25
2023-05-04T09:33:48.432Z,56.25
2023-05-04T09:34:48.385Z,56.25
2023-05-04T09:35:48.354Z,50.63
2023-05-04T09:36:48.328Z,50.63
2023-05-04T09:37:48.296Z,50.63
2023-05-04T09:38:48.273Z,56.25
2023-05-04T09:39:48.236Z,56.25
2023-05-04T09:40:48.203Z,56.25
2023-05-04T09:41:48.177Z,56.25
2023-05-04T09:42:48.147Z,56.25
2023-05-04T09:43:48.111Z,50.63
2023-05-04T09:44:48.087Z,50.63
2023-05-04T09:45:48.064Z,50.63
2023-05-04T09:46:48.043Z,50.63
2023-05-04T09:47:48.006Z,50.63
2023-05-04T09:48:47.971Z,50.63
2023-05-04T09:49:47.947Z,50.63
2023-05-04T09:50:47.910Z,50.63
2023-05-04T09:51:47.874Z,50.63
2023-05-04T09:52:47.847Z,50.63
2023-05-04T09:53:47.809Z,50.63
2023-05-04T09:54:47.786Z,50.63
2023-05-04T09:55:47.772Z,45.00
2023-05-04T09:56:47.726Z,45.00
2023-05-04T09:57:47.702Z,45.00
2023-05-04T09:58:47.664Z,45.00
2023-05-04T09:59:47.632Z,45.00
2023-05-04T10:00:47.602Z,45.00
2023-05-04T10:01:47.594Z,50.63
2023-05-04T10:02:47.618Z,50.63
2023-05-04T10:03:47.517Z,50.63
2023-05-04T10:04:47.484Z,50.63
2023-05-04T10:05:47.508Z,50.63
2023-05-04T10:06:47.424Z,50.63
2023-05-04T10:07:47.408Z,50.63
2023-05-04T10:08:47.365Z,50.63
2023-05-04T10:09:47.340Z,50.63
2023-05-04T10:10:47.307Z,50.63
2023-05-04T10:11:47.277Z,50.63
2023-05-04T10:12:47.278Z,50.63
2023-05-04T10:13:47.223Z,50.63
2023-05-04T10:14:47.412Z,50.63
2023-05-04T10:15:47.189Z,50.63
2023-05-04T10:16:47.127Z,50.63
2023-05-04T10:17:47.154Z,50.63
2023-05-04T10:18:47.068Z,50.63
2023-05-04T10:19:47.052Z,50.63
2023-05-04T10:20:47.014Z,50.63
2023-05-04T10:21:46.991Z,50.63
2023-05-04T10:22:46.953Z,56.25
2023-05-04T10:23:46.917Z,56.25
2023-05-04T10:24:46.894Z,56.25
2023-05-04T10:25:46.865Z,56.25
2023-05-04T10:26:46.849Z,61.88
2023-05-04T10:27:46.809Z,67.50
2023-05-04T10:28:46.782Z,67.50
2023-05-04T10:29:46.745Z,73.13
2023-05-04T10:30:46.724Z,73.13
2023-05-04T10:31:46.745Z,73.13
2023-05-04T10:32:46.701Z,73.13
2023-05-04T10:33:46.634Z,73.13
2023-05-04T10:34:46.603Z,73.13
2023-05-04T10:35:46.573Z,73.13
2023-05-04T10:36:46.544Z,78.75
2023-05-04T10:37:46.520Z,78.75
2023-05-04T10:38:46.507Z,73.13
2023-05-04T10:39:46.486Z,73.13
2023-05-04T10:40:46.431Z,73.13
2023-05-04T10:41:46.408Z,78.75
2023-05-04T10:42:46.385Z,78.75
2023-05-04T10:43:46.347Z,78.75
2023-05-04T10:44:46.321Z,78.75
2023-05-04T10:45:46.314Z,78.75
2023-05-04T10:46:46.267Z,78.75
2023-05-04T10:47:46.324Z,73.13
2023-05-04T10:48:46.220Z,73.13
2023-05-04T10:49:46.189Z,78.75
2023-05-04T10:50:46.160Z,78.75
2023-05-04T10:51:49.401Z,73.13
2023-05-04T10:52:46.107Z,78.75
2023-05-04T10:53:46.085Z,84.38
2023-05-04T10:54:46.045Z,84.38
2023-05-04T10:55:46.029Z,84.38
2023-05-04T10:56:46.000Z,84.38
2023-05-04T10:57:45.968Z,95.63
2023-05-04T10:58:45.941Z,101.25
2023-05-04T10:59:45.912Z,101.25
2023-05-04T11:00:45.893Z,106.88
2023-05-04T11:01:45.911Z,112.50
2023-05-04T11:02:45.863Z,118.13
2023-05-04T11:03:45.837Z,118.13
2023-05-04T11:04:45.783Z,123.75
2023-05-04T11:05:45.787Z,129.38
2023-05-04T11:06:45.734Z,129.38
2023-05-04T11:07:45.710Z,135.00
2023-05-04T11:08:45.680Z,135.00
2023-05-04T11:09:45.773Z,140.63
2023-05-04T11:10:45.630Z,146.25
2023-05-04T11:11:45.598Z,146.25
2023-05-04T11:12:45.602Z,151.88
2023-05-04T11:13:45.559Z,146.25
2023-05-04T11:14:45.523Z,151.88
2023-05-04T11:15:45.511Z,168.75
2023-05-04T11:16:45.558Z,174.38
2023-05-04T11:17:45.504Z,180.00
2023-05-04T11:18:45.426Z,185.63
2023-05-04T11:19:45.429Z,191.25
2023-05-04T11:20:45.377Z,196.88
2023-05-04T11:21:45.352Z,202.50
2023-05-04T11:22:45.337Z,208.13
2023-05-04T11:23:45.306Z,213.75
2023-05-04T11:24:45.279Z,208.13
2023-05-04T11:25:45.420Z,208.13
2023-05-04T11:26:45.236Z,208.13
2023-05-04T11:27:45.212Z,208.13
2023-05-04T11:28:45.191Z,213.75
2023-05-04T11:29:45.158Z,208.13
2023-05-04T11:30:45.133Z,219.38
2023-05-04T11:31:45.113Z,219.38
2023-05-04T11:32:45.099Z,219.38
2023-05-04T11:33:45.054Z,225.00
2023-05-04T11:34:45.044Z,225.00
2023-05-04T11:35:45.135Z,230.63
2023-05-04T11:36:44.988Z,230.63
2023-05-04T11:37:45.003Z,236.25
2023-05-04T11:38:44.941Z,247.50
2023-05-04T11:39:44.966Z,247.50
2023-05-04T11:40:44.898Z,241.88
2023-05-04T11:41:44.882Z,230.63
2023-05-04T11:42:44.849Z,241.88
2023-05-04T11:43:44.826Z,247.50
2023-05-04T11:44:44.804Z,253.13
2023-05-04T11:45:44.771Z,258.75
2023-05-04T11:46:44.807Z,275.63
2023-05-04T11:47:44.869Z,275.63
2023-05-04T11:48:44.713Z,275.63
2023-05-04T11:49:44.689Z,286.88
2023-05-04T11:50:44.667Z,292.50
2023-05-04T11:51:44.645Z,286.88
2023-05-04T11:52:44.619Z,281.25
2023-05-04T11:53:44.595Z,275.63
2023-05-04T11:54:44.576Z,286.88
2023-05-04T11:55:44.565Z,292.50
2023-05-04T11:56:44.533Z,303.75
2023-05-04T11:57:44.505Z,315.00
2023-05-04T11:58:44.486Z,315.00
2023-05-04T11:59:44.457Z,320.63
2023-05-04T12:00:44.438Z,320.63
2023-05-04T12:01:44.417Z,326.25
2023-05-04T12:02:44.473Z,326.25
2023-05-04T12:03:54.014Z,326.25
2023-05-04T12:04:44.348Z,326.25
2023-05-04T12:05:44.392Z,337.50
2023-05-04T12:06:44.306Z,337.50
2023-05-04T12:07:44.290Z,337.50
2023-05-04T12:08:44.269Z,337.50
2023-05-04T12:09:44.242Z,337.50
2023-05-04T12:10:44.220Z,337.50
2023-05-04T12:11:44.194Z,348.75
2023-05-04T12:12:44.171Z,343.13
2023-05-04T12:13:44.167Z,360.00
2023-05-04T12:14:44.129Z,371.25
2023-05-04T12:15:44.104Z,365.63
2023-05-04T12:16:44.109Z,376.88
2023-05-04T12:17:44.138Z,376.88
2023-05-04T12:18:44.038Z,388.13
2023-05-04T12:19:44.021Z,399.38
2023-05-04T12:20:44.004Z,393.75
2023-05-04T12:21:43.970Z,388.13
2023-05-04T12:22:43.952Z,399.38
2023-05-04T12:23:43.934Z,388.13
2023-05-04T12:24:43.933Z,399.38
2023-05-04T12:25:54.663Z,421.88
2023-05-04T12:26:43.874Z,427.50
2023-05-04T12:27:43.851Z,427.50
2023-05-04T12:28:43.825Z,438.75
2023-05-04T12:29:43.802Z,365.63
2023-05-04T12:30:43.776Z,388.13
2023-05-04T12:31:43.810Z,371.25
2023-05-04T12:32:43.764Z,399.38
2023-05-04T12:33:43.713Z,421.88
2023-05-04T12:34:43.693Z,444.38
2023-05-04T12:35:43.669Z,421.88
2023-05-04T12:36:43.653Z,444.38
2023-05-04T12:37:43.624Z,455.63
2023-05-04T12:38:43.608Z,444.38
2023-05-04T12:39:43.585Z,466.88
2023-05-04T12:40:43.570Z,472.50
2023-05-04T12:41:43.544Z,466.88
2023-05-04T12:42:43.525Z,472.50
2023-05-04T12:43:43.497Z,472.50
2023-05-04T12:44:43.479Z,472.50
2023-05-04T12:45:43.534Z,478.13
2023-05-04T12:46:43.444Z,478.13
2023-05-04T12:47:43.549Z,472.50
2023-05-04T12:48:43.397Z,472.50
2023-05-04T12:49:43.374Z,466.88
2023-05-04T12:50:43.357Z,472.50
2023-05-04T12:51:43.343Z,472.50
2023-05-04T12:52:43.311Z,405.00
2023-05-04T12:53:43.290Z,421.88
2023-05-04T12:54:43.266Z,478.13
2023-05-04T12:55:43.258Z,483.75
2023-05-04T12:56:43.228Z,489.38
2023-05-04T12:57:43.231Z,483.75
2023-05-04T12:58:43.208Z,489.38
2023-05-04T12:59:43.192Z,500.63
2023-05-04T13:00:45.676Z,506.25
2023-05-04T13:01:43.170Z,517.50
2023-05-04T13:02:43.207Z,523.13
2023-05-04T13:03:43.247Z,534.38
2023-05-04T13:04:43.064Z,540.00
2023-05-04T13:05:43.058Z,551.25
2023-05-04T13:06:43.015Z,556.88
2023-05-04T13:07:42.997Z,556.88
2023-05-04T13:08:42.998Z,562.50
2023-05-04T13:09:42.958Z,568.13
2023-05-04T13:10:42.936Z,573.75
2023-05-04T13:11:42.918Z,573.75